createdAt,value
2019-03-19T00:02:02.639Z,83.78
2019-03-19T00:04:13.466Z,83.57
2019-03-19T00:06:24.283Z,83.20
2019-03-19T00:08:35.179Z,83.23
2019-03-19T00:10:45.987Z,83.30
2019-03-19T00:12:56.805Z,83.50
2019-03-19T00:15:49.261Z,83.63
2019-03-19T00:18:00.073Z,83.78
2019-03-19T00:20:52.533Z,83.74
2019-03-19T00:23:03.458Z,83.75
2019-03-19T00:25:14.274Z,83.41
2019-03-19T00:27:25.173Z,83.26
2019-03-19T00:29:36.042Z,83.34
2019-03-19T00:31:46.862Z,83.49
2019-03-19T00:33:57.675Z,83.76
2019-03-19T00:36:08.486Z,83.88
2019-03-19T00:38:19.316Z,83.95
2019-03-19T00:40:30.232Z,83.87
2019-03-19T00:42:41.046Z,83.87
2019-03-19T00:44:51.868Z,83.74
2019-03-19T00:47:02.716Z,83.46
2019-03-19T00:49:13.541Z,83.36
2019-03-19T00:51:24.359Z,83.31
2019-03-19T00:53:35.190Z,83.58
2019-03-19T00:55:45.985Z,83.57
2019-03-19T00:57:56.841Z,83.51
2019-03-19T01:00:27.495Z,83.50
2019-03-19T01:02:38.378Z,83.44
2019-03-19T01:04:49.186Z,83.22
2019-03-19T01:06:59.968Z,82.99
2019-03-19T01:09:10.793Z,83.04
2019-03-19T01:11:21.606Z,83.17
2019-03-19T01:13:32.486Z,83.28
2019-03-19T01:15:43.302Z,83.40
2019-03-19T01:17:54.110Z,83.55
2019-03-19T01:20:46.574Z,83.42
2019-03-19T01:22:57.384Z,83.34
2019-03-19T01:25:55.639Z,83.07
2019-03-19T01:28:02.784Z,83.05
2019-03-19T01:30:55.270Z,82.90
2019-03-19T01:33:06.134Z,82.79
2019-03-19T01:35:16.945Z,82.81
2019-03-19T01:37:27.748Z,82.79
2019-03-19T01:39:38.564Z,82.52
2019-03-19T01:41:49.369Z,82.37
2019-03-19T01:44:00.191Z,82.31
2019-03-19T01:46:11.000Z,82.38
2019-03-19T01:48:21.776Z,82.33
2019-03-19T01:50:32.619Z,82.53
2019-03-19T01:52:43.421Z,82.85
2019-03-19T01:54:54.230Z,83.07
2019-03-19T01:57:05.018Z,83.32
2019-03-19T01:59:15.844Z,83.45
2019-03-19T02:01:26.637Z,83.73
2019-03-19T02:03:37.442Z,84.17
2019-03-19T02:05:48.277Z,84.44
2019-03-19T02:07:59.067Z,84.45
2019-03-19T02:10:51.532Z,84.52
2019-03-19T02:13:02.356Z,84.68
2019-03-19T02:15:54.829Z,84.59
2019-03-19T02:18:05.691Z,84.37
2019-03-19T02:20:58.145Z,83.98
2019-03-19T02:23:08.942Z,83.76
2019-03-19T02:25:19.770Z,83.98
2019-03-19T02:27:30.670Z,84.27
2019-03-19T02:29:41.481Z,84.14
2019-03-19T02:31:52.302Z,84.54
2019-03-19T02:34:03.206Z,84.53
2019-03-19T02:36:14.027Z,84.62
2019-03-19T02:38:24.824Z,84.63
2019-03-19T02:40:35.650Z,84.49
2019-03-19T02:42:46.466Z,84.35
2019-03-19T02:44:57.366Z,84.24
2019-03-19T02:47:08.377Z,84.34
2019-03-19T02:49:19.163Z,84.34
2019-03-19T02:51:29.983Z,84.34
2019-03-19T02:53:40.778Z,84.29
2019-03-19T02:55:51.593Z,84.23
2019-03-19T02:58:02.555Z,84.24
2019-03-19T03:00:54.955Z,84.19
2019-03-19T03:03:05.777Z,84.08
2019-03-19T03:05:58.216Z,84.14
2019-03-19T03:08:09.026Z,84.33
2019-03-19T03:10:19.958Z,84.23
2019-03-19T03:12:30.838Z,84.10
2019-03-19T03:14:41.635Z,83.98
2019-03-19T03:16:52.544Z,83.82
2019-03-19T03:19:03.561Z,83.65
2019-03-19T03:21:14.378Z,83.32
2019-03-19T03:23:25.211Z,83.23
2019-03-19T03:25:36.018Z,83.43
2019-03-19T03:27:46.833Z,83.52
2019-03-19T03:29:57.641Z,83.61
2019-03-19T03:32:08.438Z,83.68
2019-03-19T03:34:19.298Z,83.71
2019-03-19T03:36:30.085Z,83.68
2019-03-19T03:38:40.924Z,83.75
2019-03-19T03:40:51.710Z,83.84
2019-03-19T03:43:02.762Z,83.89
2019-03-19T03:45:55.194Z,84.02
2019-03-19T03:48:06.025Z,84.12
2019-03-19T03:53:15.592Z,84.47
2019-03-19T03:55:26.391Z,85.04
2019-03-19T03:57:37.175Z,85.01
2019-03-19T03:59:47.981Z,84.90
2019-03-19T04:01:58.814Z,84.88
2019-03-19T04:04:09.651Z,84.92
2019-03-19T04:06:20.456Z,84.78
2019-03-19T04:08:31.258Z,84.75
2019-03-19T04:10:42.082Z,84.58
2019-03-19T04:12:53.000Z,84.45
2019-03-19T04:15:45.453Z,84.41
2019-03-19T04:17:56.251Z,84.47
2019-03-19T04:20:48.728Z,84.55
2019-03-19T04:22:59.529Z,84.63
2019-03-19T04:25:10.448Z,84.75
2019-03-19T04:27:21.346Z,84.72
2019-03-19T04:29:32.170Z,84.70
2019-03-19T04:31:43.072Z,84.73
2019-03-19T04:33:53.865Z,84.82
2019-03-19T04:36:04.681Z,84.84
2019-03-19T04:38:15.472Z,84.78
2019-03-19T04:40:26.293Z,84.69
2019-03-19T04:42:37.066Z,84.55
2019-03-19T04:44:47.875Z,84.46
2019-03-19T04:46:58.685Z,84.39
2019-03-19T04:49:09.506Z,84.45
2019-03-19T04:51:20.320Z,84.46
2019-03-19T04:53:31.117Z,84.70
2019-03-19T04:55:42.042Z,84.86
2019-03-19T04:57:52.844Z,85.03
2019-03-19T05:00:45.355Z,85.16
2019-03-19T05:02:56.162Z,85.26
2019-03-19T05:05:48.641Z,85.48
2019-03-19T05:07:59.473Z,85.75
2019-03-19T05:10:30.153Z,85.96
2019-03-19T05:12:40.966Z,86.04
2019-03-19T05:14:51.779Z,85.99
2019-03-19T05:19:24.779Z,85.87
2019-03-19T05:21:35.682Z,85.82
2019-03-19T05:23:46.513Z,85.86
2019-03-19T05:25:57.299Z,85.96
2019-03-19T05:28:08.115Z,86.12
2019-03-19T05:31:00.573Z,86.12
2019-03-19T05:33:11.393Z,86.27
2019-03-19T05:35:22.213Z,86.44
2019-03-19T05:37:33.034Z,86.54
2019-03-19T05:39:43.810Z,86.64
2019-03-19T05:41:54.607Z,86.78
2019-03-19T05:44:05.439Z,86.73
2019-03-19T05:46:16.330Z,86.58
2019-03-19T05:48:27.154Z,86.51
2019-03-19T05:50:37.952Z,86.46
2019-03-19T05:52:48.990Z,86.37
2019-03-19T05:54:59.805Z,86.29
2019-03-19T05:57:10.613Z,86.13
2019-03-19T05:59:21.424Z,85.99
2019-03-19T06:01:32.214Z,85.88
2019-03-19T06:03:43.028Z,85.99
2019-03-19T06:05:53.848Z,85.79
2019-03-19T06:08:04.666Z,85.73
2019-03-19T06:10:15.486Z,85.65
2019-03-19T06:12:26.315Z,85.68
2019-03-19T06:14:37.191Z,85.63
2019-03-19T06:16:48.031Z,85.77
2019-03-19T06:18:58.853Z,85.90
2019-03-19T06:21:09.721Z,85.94
2019-03-19T06:23:20.543Z,85.78
2019-03-19T06:25:31.369Z,85.86
2019-03-19T06:27:42.164Z,85.62
2019-03-19T06:29:52.975Z,85.37
2019-03-19T06:32:03.810Z,85.17
2019-03-19T06:34:14.625Z,84.92
2019-03-19T06:36:25.434Z,84.50
2019-03-19T06:38:36.225Z,84.48
2019-03-19T06:40:47.052Z,83.70
2019-03-19T06:42:57.874Z,83.60
2019-03-19T06:45:50.369Z,83.45
2019-03-19T06:48:01.186Z,83.50
2019-03-19T06:50:31.869Z,83.52
2019-03-19T06:52:42.766Z,83.45
2019-03-19T06:54:53.578Z,83.43
2019-03-19T06:57:04.456Z,83.10
2019-03-19T06:59:15.211Z,81.87
2019-03-19T07:01:26.030Z,80.78
2019-03-19T07:03:36.858Z,80.33
2019-03-19T07:05:47.686Z,79.15
2019-03-19T07:07:58.486Z,77.48
2019-03-19T07:10:29.243Z,75.75
2019-03-19T07:15:54.162Z,71.16
2019-03-19T07:18:04.978Z,67.89
2019-03-19T07:20:57.448Z,66.50
2019-03-19T07:23:08.254Z,66.09
2019-03-19T07:25:19.258Z,64.89
2019-03-19T07:27:30.072Z,62.85
2019-03-19T07:29:40.866Z,62.87
2019-03-19T07:31:51.699Z,62.41
2019-03-19T07:34:02.509Z,61.23
2019-03-19T07:36:13.318Z,62.55
2019-03-19T07:38:24.162Z,60.40
2019-03-19T07:40:34.960Z,60.69
2019-03-19T07:42:45.894Z,58.95
2019-03-19T07:44:56.862Z,58.50
2019-03-19T07:47:07.673Z,59.02
2019-03-19T07:49:18.515Z,56.15
2019-03-19T07:51:29.335Z,55.85
2019-03-19T07:53:40.131Z,55.59
2019-03-19T07:55:53.318Z,53.94
2019-03-19T07:58:03.709Z,56.24
2019-03-19T08:00:34.384Z,55.87
2019-03-19T08:02:45.230Z,56.65
2019-03-19T08:04:56.010Z,57.17
2019-03-19T08:07:06.847Z,58.11
2019-03-19T08:09:17.688Z,58.99
2019-03-19T08:11:28.538Z,59.50
2019-03-19T08:13:39.350Z,58.95
2019-03-19T08:15:50.161Z,60.48
2019-03-19T08:18:00.993Z,61.78
2019-03-19T08:20:31.659Z,62.08
2019-03-19T08:22:42.549Z,61.46
2019-03-19T08:24:53.358Z,63.31
2019-03-19T08:27:04.193Z,63.68
2019-03-19T08:29:15.033Z,64.71
2019-03-19T08:31:25.838Z,65.09
2019-03-19T08:33:36.698Z,64.63
2019-03-19T08:35:47.510Z,65.26
2019-03-19T08:37:58.338Z,64.18
2019-03-19T08:40:51.089Z,63.36
2019-03-19T08:43:02.052Z,63.78
2019-03-19T08:45:54.481Z,64.52
2019-03-19T08:48:05.311Z,63.75
2019-03-19T08:50:57.779Z,62.54
2019-03-19T08:53:08.607Z,62.98
2019-03-19T08:55:19.522Z,63.17
2019-03-19T08:57:30.448Z,61.95
2019-03-19T08:59:41.271Z,62.00
2019-03-19T09:01:52.117Z,62.40
2019-03-19T09:04:02.904Z,57.80
2019-03-19T09:06:13.717Z,59.69
2019-03-19T09:08:24.504Z,60.60
2019-03-19T09:10:35.344Z,58.90
2019-03-19T09:12:48.161Z,57.12
2019-03-19T09:14:58.939Z,57.73
2019-03-19T09:17:09.855Z,56.63
2019-03-19T09:19:20.676Z,56.74
2019-03-19T09:21:31.507Z,54.81
2019-03-19T09:23:42.303Z,54.43
2019-03-19T09:25:53.193Z,53.74
2019-03-19T09:28:04.022Z,53.78
2019-03-19T09:30:56.477Z,51.34
2019-03-19T09:33:07.284Z,51.81
2019-03-19T09:35:18.198Z,52.52
2019-03-19T09:37:29.020Z,50.51
2019-03-19T09:39:39.877Z,49.40
2019-03-19T09:41:50.671Z,48.80
2019-03-19T09:44:01.474Z,49.59
2019-03-19T09:46:12.297Z,49.57
2019-03-19T09:48:23.101Z,50.24
2019-03-19T09:50:33.914Z,50.91
2019-03-19T09:52:44.801Z,50.47
2019-03-19T09:54:55.586Z,50.56
2019-03-19T09:57:06.391Z,48.04
2019-03-19T09:59:26.746Z,48.05
2019-03-19T10:01:29.900Z,48.46
2019-03-19T10:03:40.703Z,50.01
2019-03-19T10:05:51.496Z,50.16
2019-03-19T10:08:02.522Z,48.70
2019-03-19T10:10:54.997Z,50.09
2019-03-19T10:13:05.805Z,50.37
2019-03-19T10:15:16.989Z,48.75
2019-03-19T10:17:27.804Z,46.29
2019-03-19T10:19:38.616Z,44.56
2019-03-19T10:21:49.436Z,44.51
2019-03-19T10:24:00.260Z,47.47
2019-03-19T10:26:11.073Z,48.34
2019-03-19T10:28:21.911Z,48.71
2019-03-19T10:30:32.737Z,48.85
2019-03-19T10:32:43.635Z,47.55
2019-03-19T10:34:54.453Z,48.83
2019-03-19T10:37:05.303Z,48.09
2019-03-19T10:39:16.118Z,47.40
2019-03-19T10:41:26.894Z,46.66
2019-03-19T10:43:37.721Z,44.41
2019-03-19T10:45:48.626Z,43.94
2019-03-19T10:47:59.439Z,44.55
2019-03-19T10:50:32.025Z,44.25
2019-03-19T10:52:42.806Z,44.89
2019-03-19T10:54:53.700Z,43.28
2019-03-19T10:57:04.518Z,44.54
2019-03-19T10:59:15.351Z,45.53
2019-03-19T11:01:26.165Z,45.43
2019-03-19T11:03:37.027Z,44.24
2019-03-19T11:05:47.922Z,44.73
2019-03-19T11:07:58.938Z,44.05
2019-03-19T11:10:51.390Z,43.62
2019-03-19T11:13:02.312Z,44.03
2019-03-19T11:15:39.768Z,43.53
2019-03-19T11:17:50.579Z,41.68
2019-03-19T11:22:40.586Z,42.59
2019-03-19T11:24:51.424Z,43.13
2019-03-19T11:27:02.429Z,42.37
2019-03-19T11:29:13.251Z,39.89
2019-03-19T11:31:24.063Z,40.00
2019-03-19T11:33:34.886Z,40.44
2019-03-19T11:35:45.861Z,40.48
2019-03-19T11:37:56.626Z,40.29
2019-03-19T11:40:49.097Z,40.73
2019-03-19T11:42:59.898Z,38.84
2019-03-19T11:45:52.359Z,45.18
2019-03-19T11:48:44.805Z,40.34
2019-03-19T11:50:55.626Z,39.28
2019-03-19T11:53:06.438Z,39.55
2019-03-19T11:55:17.249Z,38.26
2019-03-19T11:57:28.083Z,38.98
2019-03-19T11:59:38.871Z,41.69
2019-03-19T12:01:49.716Z,40.35
2019-03-19T12:04:00.513Z,40.40
2019-03-19T12:06:11.409Z,40.29
2019-03-19T12:08:22.239Z,41.18
2019-03-19T12:10:33.047Z,40.25
2019-03-19T12:12:43.903Z,40.74
2019-03-19T12:14:54.715Z,40.78
2019-03-19T12:17:05.530Z,43.18
2019-03-19T12:19:16.434Z,42.12
2019-03-19T12:21:27.256Z,42.47
2019-03-19T12:23:38.059Z,42.78
2019-03-19T12:25:48.870Z,41.18
2019-03-19T12:27:59.809Z,41.44
2019-03-19T12:30:30.490Z,42.00
2019-03-19T12:32:41.344Z,39.28
2019-03-19T12:34:52.151Z,38.46
2019-03-19T12:37:03.093Z,38.59
2019-03-19T12:39:13.916Z,39.85
2019-03-19T12:41:24.755Z,38.63
2019-03-19T12:43:35.572Z,38.65
2019-03-19T12:45:46.468Z,39.22
2019-03-19T12:47:57.325Z,42.67
2019-03-19T12:50:28.091Z,44.56
2019-03-19T12:52:38.903Z,43.95
2019-03-19T12:54:49.727Z,44.29
2019-03-19T12:57:00.548Z,43.34
2019-03-19T12:59:19.713Z,41.74
2019-03-19T13:01:24.199Z,41.62
2019-03-19T13:03:35.112Z,43.01
2019-03-19T13:05:45.941Z,43.03
2019-03-19T13:07:56.770Z,43.16
2019-03-19T13:10:27.445Z,42.37
2019-03-19T13:12:38.344Z,43.75
2019-03-19T13:14:49.162Z,43.21
2019-03-19T13:16:59.984Z,41.87
2019-03-19T13:19:10.821Z,41.76
2019-03-19T13:21:21.620Z,42.39
2019-03-19T13:23:32.443Z,41.69
2019-03-19T13:25:43.259Z,41.70
2019-03-19T13:27:54.077Z,41.48
2019-03-19T13:30:46.547Z,40.86
2019-03-19T13:32:57.379Z,39.90
2019-03-19T13:35:08.238Z,41.24
2019-03-19T13:37:19.041Z,41.00
2019-03-19T13:39:29.883Z,41.14
2019-03-19T13:41:40.690Z,41.11
2019-03-19T13:43:51.488Z,38.80
2019-03-19T13:46:02.296Z,40.63
2019-03-19T13:48:13.098Z,39.63
2019-03-19T13:50:24.063Z,38.65
2019-03-19T13:52:34.988Z,38.97
2019-03-19T13:54:45.897Z,38.43
2019-03-19T13:56:56.690Z,39.67
2019-03-19T13:59:07.482Z,38.80
2019-03-19T14:01:18.326Z,38.42
2019-03-19T14:03:29.142Z,38.82
2019-03-19T14:05:39.958Z,37.95
2019-03-19T14:07:50.940Z,37.90
2019-03-19T14:10:43.406Z,37.54
2019-03-19T14:12:54.227Z,37.92
2019-03-19T14:15:46.685Z,37.75
2019-03-19T14:17:57.549Z,38.31
2019-03-19T14:20:49.988Z,38.82
2019-03-19T14:23:00.825Z,37.70
2019-03-19T14:25:53.290Z,37.53
2019-03-19T14:28:04.199Z,37.48
2019-03-19T14:30:34.893Z,36.77
2019-03-19T14:32:45.942Z,37.96
2019-03-19T14:34:56.742Z,37.37
2019-03-19T14:37:07.560Z,36.98
2019-03-19T14:39:18.377Z,36.79
2019-03-19T14:41:29.213Z,35.65
2019-03-19T14:43:39.999Z,35.87
2019-03-19T14:45:50.801Z,36.90
2019-03-19T14:48:01.740Z,35.92
2019-03-19T14:50:54.223Z,35.28
2019-03-19T14:53:05.021Z,35.25
2019-03-19T14:55:15.926Z,36.46
2019-03-19T14:57:26.752Z,37.02
2019-03-19T14:59:37.553Z,37.26
2019-03-19T15:01:48.341Z,36.73
2019-03-19T15:03:59.178Z,36.94
2019-03-19T15:06:09.994Z,38.27
2019-03-19T15:08:20.826Z,35.95
2019-03-19T15:10:31.629Z,36.81
2019-03-19T15:12:42.557Z,37.81
2019-03-19T15:14:53.355Z,37.57
2019-03-19T15:17:05.155Z,37.13
2019-03-19T15:19:16.938Z,37.48
2019-03-19T15:21:27.810Z,36.20
2019-03-19T15:23:38.737Z,36.08
2019-03-19T15:25:49.548Z,36.47
2019-03-19T15:28:00.390Z,34.68
2019-03-19T15:30:52.844Z,34.15
2019-03-19T15:33:03.706Z,35.06
2019-03-19T15:35:14.514Z,36.95
2019-03-19T15:37:25.356Z,37.35
2019-03-19T15:39:36.209Z,35.01
2019-03-19T15:41:47.023Z,36.54
2019-03-19T15:43:57.853Z,36.04
2019-03-19T15:46:08.628Z,35.14
2019-03-19T15:48:19.477Z,35.01
2019-03-19T15:50:30.334Z,35.67
2019-03-19T15:52:41.227Z,36.09
2019-03-19T15:54:52.210Z,36.71
2019-03-19T15:57:22.875Z,37.10
2019-03-19T15:59:33.673Z,38.13
2019-03-19T16:01:44.490Z,39.94
2019-03-19T16:03:55.370Z,39.27
2019-03-19T16:06:06.190Z,39.28
2019-03-19T16:08:17.016Z,38.48
2019-03-19T16:10:27.894Z,39.06
2019-03-19T16:12:38.709Z,39.00
2019-03-19T16:14:49.546Z,38.32
2019-03-19T16:17:00.352Z,38.41
2019-03-19T16:19:11.177Z,38.74
2019-03-19T16:21:21.983Z,38.57
2019-03-19T16:23:32.818Z,38.28
2019-03-19T16:25:43.663Z,38.90
2019-03-19T16:27:54.470Z,39.34
2019-03-19T16:30:25.166Z,38.01
2019-03-19T16:32:36.107Z,38.58
2019-03-19T16:34:46.936Z,38.41
2019-03-19T16:36:57.781Z,38.44
2019-03-19T16:39:08.562Z,40.01
2019-03-19T16:41:19.379Z,39.79
2019-03-19T16:43:30.197Z,39.36
2019-03-19T16:45:41.056Z,38.70
2019-03-19T16:47:51.878Z,38.87
2019-03-19T16:50:44.352Z,39.16
2019-03-19T16:52:55.198Z,39.96
2019-03-19T16:55:47.651Z,40.38
2019-03-19T16:57:58.487Z,41.26
2019-03-19T17:00:29.396Z,42.09
2019-03-19T17:02:40.222Z,42.56
2019-03-19T17:05:11.223Z,42.94
2019-03-19T17:07:22.043Z,42.94
2019-03-19T17:09:32.870Z,42.94
2019-03-19T17:11:43.713Z,43.19
2019-03-19T17:13:54.563Z,43.42
2019-03-19T17:16:05.382Z,43.69
2019-03-19T17:18:16.204Z,44.40
2019-03-19T17:22:59.400Z,44.70
2019-03-19T17:25:51.865Z,44.75
2019-03-19T17:28:02.805Z,44.33
2019-03-19T17:30:55.270Z,44.35
2019-03-19T17:33:06.280Z,44.47
2019-03-19T17:35:17.089Z,44.05
2019-03-19T17:37:27.944Z,44.00
2019-03-19T17:39:38.788Z,43.79
2019-03-19T17:41:49.727Z,43.64
2019-03-19T17:44:00.628Z,43.73
2019-03-19T17:46:11.472Z,46.20
2019-03-19T17:48:22.327Z,47.28
2019-03-19T17:51:14.770Z,48.91
2019-03-19T17:53:25.626Z,49.13
2019-03-19T17:55:36.424Z,49.82
2019-03-19T17:57:47.229Z,49.95
2019-03-19T17:59:58.048Z,50.12
2019-03-19T18:02:08.873Z,49.86
2019-03-19T18:04:39.588Z,50.33
2019-03-19T18:06:50.445Z,51.09
2019-03-19T18:11:18.480Z,51.84
2019-03-19T18:13:29.305Z,52.09
2019-03-19T18:15:40.187Z,52.08
2019-03-19T18:17:51.008Z,52.31
2019-03-19T18:20:43.495Z,52.14
2019-03-19T18:22:54.344Z,52.47
2019-03-19T18:25:47.106Z,52.95
2019-03-19T18:27:57.939Z,53.41
2019-03-19T18:30:50.413Z,55.05
2019-03-19T18:33:01.272Z,55.16
2019-03-19T18:35:12.219Z,55.36
2019-03-19T18:37:23.057Z,55.80
2019-03-19T18:39:35.559Z,55.91
2019-03-19T18:41:46.633Z,55.76
2019-03-19T18:43:57.456Z,55.92
2019-03-19T18:46:08.270Z,55.74
2019-03-19T18:48:19.082Z,56.03
2019-03-19T18:50:29.856Z,56.25
2019-03-19T18:52:40.688Z,56.46
2019-03-19T18:54:51.517Z,56.53
2019-03-19T18:59:24.552Z,58.27
2019-03-19T19:01:35.401Z,58.68
2019-03-19T19:03:46.234Z,58.27
2019-03-19T19:05:57.195Z,58.49
2019-03-19T19:08:08.073Z,58.92
2019-03-19T19:10:21.093Z,58.90
2019-03-19T19:12:31.761Z,59.42
2019-03-19T19:14:42.591Z,59.92
2019-03-19T19:16:53.460Z,59.78
2019-03-19T19:19:04.287Z,59.71
2019-03-19T19:21:15.086Z,60.28
2019-03-19T19:23:25.928Z,60.86
2019-03-19T19:25:36.739Z,60.76
2019-03-19T19:27:47.589Z,61.22
2019-03-19T19:29:58.398Z,61.27
2019-03-19T19:32:11.274Z,61.53
2019-03-19T19:34:22.107Z,61.69
2019-03-19T19:36:32.950Z,62.19
2019-03-19T19:38:43.769Z,62.08
2019-03-19T19:40:54.593Z,62.26
2019-03-19T19:45:43.933Z,62.65
2019-03-19T19:47:54.778Z,63.36
2019-03-19T19:50:27.367Z,63.42
2019-03-19T19:52:38.207Z,63.49
2019-03-19T19:54:49.040Z,63.23
2019-03-19T19:56:59.845Z,63.38
2019-03-19T19:59:10.708Z,63.73
2019-03-19T20:01:21.542Z,64.00
2019-03-19T20:03:32.400Z,64.01
2019-03-19T20:05:43.238Z,63.99
2019-03-19T20:07:54.057Z,63.58
2019-03-19T20:10:46.548Z,63.54
2019-03-19T20:12:57.353Z,63.81
2019-03-19T20:15:49.882Z,64.32
2019-03-19T20:18:00.686Z,64.36
2019-03-19T20:20:32.031Z,64.41
2019-03-19T20:22:44.816Z,64.63
2019-03-19T20:24:55.576Z,64.71
2019-03-19T20:27:06.398Z,64.84
2019-03-19T20:29:17.235Z,64.87
2019-03-19T20:31:28.045Z,64.52
2019-03-19T20:33:38.924Z,64.38
2019-03-19T20:35:49.795Z,64.47
2019-03-19T20:38:03.276Z,64.61
2019-03-19T20:40:55.732Z,64.79
2019-03-19T20:43:06.562Z,64.62
2019-03-19T20:45:37.382Z,64.68
2019-03-19T20:47:48.228Z,64.84
2019-03-19T20:49:59.080Z,65.17
2019-03-19T20:52:10.017Z,65.41
2019-03-19T20:54:20.825Z,66.05
2019-03-19T20:56:31.673Z,66.32
2019-03-19T20:58:43.815Z,66.61
2019-03-19T21:00:55.259Z,66.63
2019-03-19T21:03:06.069Z,67.14
2019-03-19T21:05:16.975Z,67.21
2019-03-19T21:07:47.700Z,67.24
2019-03-19T21:09:58.554Z,67.29
2019-03-19T21:12:09.366Z,66.94
2019-03-19T21:14:20.388Z,66.80
2019-03-19T21:19:30.063Z,67.71
2019-03-19T21:21:40.897Z,67.79
2019-03-19T21:23:51.750Z,68.43
2019-03-19T21:26:02.681Z,68.83
2019-03-19T21:28:14.637Z,69.01
2019-03-19T21:30:26.348Z,69.36
2019-03-19T21:32:37.325Z,69.08
2019-03-19T21:34:48.225Z,68.46
2019-03-19T21:37:40.738Z,68.19
2019-03-19T21:39:51.579Z,68.21
2019-03-19T21:42:02.502Z,67.86
2019-03-19T21:44:13.346Z,67.64
2019-03-19T21:46:24.163Z,67.59
2019-03-19T21:48:35.023Z,67.59
2019-03-19T21:50:45.884Z,67.27
2019-03-19T21:55:18.943Z,66.84
2019-03-19T21:57:29.725Z,66.83
2019-03-19T21:59:40.567Z,67.20
2019-03-19T22:01:51.475Z,67.32
2019-03-19T22:04:03.479Z,67.73
2019-03-19T22:06:16.478Z,67.83
2019-03-19T22:08:27.983Z,67.98
2019-03-19T22:10:38.784Z,68.43
2019-03-19T22:12:49.877Z,68.18
2019-03-19T22:15:43.984Z,68.28
2019-03-19T22:17:54.776Z,68.48
2019-03-19T22:20:05.709Z,68.71
2019-03-19T22:22:16.513Z,68.38
2019-03-19T22:24:27.349Z,68.47
2019-03-19T22:27:19.780Z,68.52
2019-03-19T22:29:30.621Z,68.36
2019-03-19T22:31:41.437Z,68.29
2019-03-19T22:33:52.299Z,68.63
2019-03-19T22:36:03.209Z,68.83
2019-03-19T22:38:14.048Z,68.80
2019-03-19T22:40:24.917Z,69.68
2019-03-19T22:42:35.804Z,69.94
2019-03-19T22:44:46.681Z,70.12
2019-03-19T22:46:57.514Z,70.14
2019-03-19T22:49:08.342Z,70.14
2019-03-19T22:51:19.156Z,70.00
2019-03-19T22:53:31.411Z,69.78
2019-03-19T22:55:42.672Z,69.84
2019-03-19T22:57:53.491Z,69.82
2019-03-19T23:00:44.069Z,71.17
2019-03-19T23:02:55.011Z,71.17
2019-03-19T23:05:06.031Z,71.66
2019-03-19T23:07:16.859Z,71.86
2019-03-19T23:09:27.656Z,71.91
2019-03-19T23:11:38.467Z,71.74
2019-03-19T23:13:49.273Z,71.69
2019-03-19T23:16:00.122Z,71.34
2019-03-19T23:18:10.927Z,71.11
2019-03-19T23:20:21.728Z,71.15
2019-03-19T23:22:32.557Z,71.36
2019-03-19T23:24:43.349Z,71.46
2019-03-19T23:26:54.170Z,71.28
2019-03-19T23:29:05.014Z,71.17
2019-03-19T23:31:15.864Z,71.21
2019-03-19T23:33:26.693Z,71.10
2019-03-19T23:35:37.488Z,70.86
2019-03-19T23:37:48.321Z,71.04
2019-03-19T23:39:59.135Z,71.34
2019-03-19T23:42:09.961Z,71.41
2019-03-19T23:44:20.789Z,71.55
2019-03-19T23:46:31.589Z,71.66
2019-03-19T23:48:42.430Z,71.69
2019-03-19T23:50:53.228Z,71.89
2019-03-19T23:53:04.056Z,72.43
2019-03-19T23:55:14.854Z,72.54
2019-03-19T23:57:25.657Z,72.42
2019-03-19T23:59:36.476Z,73.00
